Archival Weather

Chicago O'Hare International

Chicago, Illinois (KORD)

Report from: Saturday, November 5, 2022 3:51 PM CDT
Current time: Saturday, March 2, 2024 4:00 AM CST

Current weather – Weather history – Daily summaries
Weather forecast

Temperature10.0°C (50.0°F)
Wind chill5.6°C (42.1°F)
Dew point3.3°C (37.9°F)
Winds 26 kts (13.4 m/s, 29.9 mph) South-Southwest (210°)
Wind gusts 41 kts (21.1 m/s, 47.2 mph)
Peak wind 52 kts (26.8 m/s, 59.8 mph) South-Southwest (210°) at 20:18
Visibility10 mi. (16.1 km)
Clouds Ceiling: Broken clouds 3,200 ft. (975 m)
Broken clouds 4,000 ft. (1,219 m)
Altimeter29.50 in.Hg (999 mB)
Relative humidity63 %
Density altitude10 ft. (3 m)
Sea-level pressure99.9 kPa (999 mB, 29.49 in.Hg)
Remarks Automated weather observing station with precipitation discriminator
Pressure rising more quickly
Flight conditions Visual Meteorological Conditions
Raw dataKORD 052051Z 21026G41KT 10SM BKN032 BKN040 10/03 A2950 RMK AO2 PK WND 21052/2018 SLP988 T01000033 53019
An error has occurred. This application may no longer respond until reloaded. Reload 🗙